createdAt,value
2022-12-26T00:00:00.677Z,1.50
2022-12-26T00:00:23.557Z,1.50
2022-12-26T00:00:46.746Z,1.50
2022-12-26T00:01:11.038Z,1.40
2022-12-26T00:01:34.748Z,1.50
2022-12-26T00:01:57.669Z,1.50
2022-12-26T00:02:20.620Z,1.50
2022-12-26T00:02:43.786Z,1.40
2022-12-26T00:03:06.816Z,1.40
2022-12-26T00:03:30.877Z,1.40
2022-12-26T00:03:53.945Z,1.50
2022-12-26T00:04:50.707Z,1.40
2022-12-26T00:04:59.660Z,1.50
2022-12-26T00:05:22.478Z,1.40
2022-12-26T00:05:45.316Z,1.40
2022-12-26T00:06:13.612Z,1.40
2022-12-26T00:06:36.334Z,1.40
2022-12-26T00:06:59.053Z,1.40
2022-12-26T00:07:21.798Z,1.40
2022-12-26T00:07:44.808Z,1.30
2022-12-26T00:08:08.217Z,1.40
2022-12-26T00:08:30.946Z,1.30
2022-12-26T00:08:53.761Z,1.40
2022-12-26T00:09:17.329Z,1.30
2022-12-26T00:09:40.103Z,1.30
2022-12-26T00:10:02.788Z,1.30
2022-12-26T00:10:25.472Z,1.30
2022-12-26T00:10:48.172Z,1.30
2022-12-26T00:11:10.978Z,1.30
2022-12-26T00:11:33.861Z,1.30
2022-12-26T00:11:57.115Z,1.30
2022-12-26T00:12:19.863Z,1.30
2022-12-26T00:12:42.769Z,1.30
2022-12-26T00:13:37.242Z,1.30
2022-12-26T00:13:54.175Z,1.30
2022-12-26T00:14:17.450Z,1.30
2022-12-26T00:14:40.531Z,1.30
2022-12-26T00:15:03.194Z,1.30
2022-12-26T00:15:25.932Z,1.30
2022-12-26T00:15:48.635Z,1.30
2022-12-26T00:16:12.225Z,1.30
2022-12-26T00:16:35.160Z,1.30
2022-12-26T00:16:58.008Z,1.30
2022-12-26T00:17:20.757Z,1.30
2022-12-26T00:17:43.551Z,1.30
2022-12-26T00:18:06.318Z,1.30
2022-12-26T00:18:29.058Z,1.30
2022-12-26T00:18:51.785Z,1.30
2022-12-26T00:19:14.757Z,1.40
2022-12-26T00:19:37.495Z,1.30
2022-12-26T00:20:00.213Z,1.40
2022-12-26T00:20:22.914Z,1.40
2022-12-26T00:20:48.159Z,1.40
2022-12-26T00:21:11.815Z,1.40
2022-12-26T00:21:35.542Z,1.50
2022-12-26T00:21:58.287Z,1.50
2022-12-26T00:22:20.998Z,1.50
2022-12-26T00:22:43.751Z,1.50
2022-12-26T00:23:09.929Z,1.70
2022-12-26T00:23:32.765Z,1.60
2022-12-26T00:23:55.668Z,1.60
2022-12-26T00:24:18.345Z,1.60
2022-12-26T00:24:41.184Z,1.60
2022-12-26T00:25:04.312Z,1.50
2022-12-26T00:25:27.098Z,1.60
2022-12-26T00:25:49.797Z,1.50
2022-12-26T00:26:13.455Z,1.50
2022-12-26T00:26:37.000Z,1.50
2022-12-26T00:26:59.716Z,1.50
2022-12-26T00:27:22.756Z,1.50
2022-12-26T00:27:45.434Z,1.50
2022-12-26T00:28:08.171Z,1.60
2022-12-26T00:28:31.143Z,1.60
2022-12-26T00:28:57.503Z,1.50
2022-12-26T00:29:20.242Z,1.50
2022-12-26T00:29:45.174Z,1.50
2022-12-26T00:30:10.019Z,1.50
2022-12-26T00:30:32.802Z,1.50
2022-12-26T00:30:55.514Z,1.50
2022-12-26T00:31:19.391Z,1.50
2022-12-26T00:31:42.235Z,1.50
2022-12-26T00:32:05.384Z,1.50
2022-12-26T00:32:28.317Z,1.50
2022-12-26T00:32:51.035Z,1.50
2022-12-26T00:33:13.758Z,1.40
2022-12-26T00:33:36.647Z,1.40
2022-12-26T00:33:59.464Z,1.40
2022-12-26T00:34:22.193Z,1.30
2022-12-26T00:34:47.305Z,1.30
2022-12-26T00:35:10.231Z,1.30
2022-12-26T00:35:33.639Z,1.30
2022-12-26T00:36:02.749Z,1.30
2022-12-26T00:36:28.187Z,1.30
2022-12-26T00:36:50.979Z,1.20
2022-12-26T00:37:13.728Z,1.20
2022-12-26T00:37:36.522Z,1.20
2022-12-26T00:37:59.196Z,1.30
2022-12-26T00:38:21.874Z,1.30
2022-12-26T00:38:45.188Z,1.30
2022-12-26T00:39:08.519Z,1.30
2022-12-26T00:39:31.355Z,1.30
2022-12-26T00:39:54.093Z,1.30
2022-12-26T00:40:16.848Z,1.20
2022-12-26T00:40:43.601Z,1.30
2022-12-26T00:41:06.475Z,1.30
2022-12-26T00:41:29.363Z,1.20
2022-12-26T00:41:52.056Z,1.20
2022-12-26T00:42:14.795Z,1.30
2022-12-26T00:42:37.579Z,1.30
2022-12-26T00:43:00.344Z,1.20
2022-12-26T00:43:23.045Z,1.30
2022-12-26T00:43:45.879Z,1.20
2022-12-26T00:44:10.055Z,1.20
2022-12-26T00:44:32.823Z,1.20
2022-12-26T00:44:55.547Z,1.20
2022-12-26T00:45:18.483Z,1.20
2022-12-26T00:45:44.895Z,1.10
2022-12-26T00:46:07.870Z,1.20
2022-12-26T00:46:30.923Z,1.20
2022-12-26T00:46:56.224Z,1.10
2022-12-26T00:47:19.118Z,1.20
2022-12-26T00:47:41.944Z,1.20
2022-12-26T00:48:04.901Z,1.20
2022-12-26T00:48:27.708Z,1.20
2022-12-26T00:48:50.481Z,1.20
2022-12-26T00:49:13.196Z,1.20
2022-12-26T00:50:12.518Z,1.20
2022-12-26T00:50:19.033Z,1.10
2022-12-26T00:50:41.763Z,1.10
2022-12-26T00:51:04.630Z,1.10
2022-12-26T00:51:27.352Z,1.10
2022-12-26T00:51:50.054Z,1.10
2022-12-26T00:52:14.977Z,1.10
2022-12-26T00:52:37.785Z,1.10
2022-12-26T00:53:00.547Z,1.10
2022-12-26T00:53:23.517Z,1.10
2022-12-26T00:53:46.428Z,1.10
2022-12-26T00:54:09.199Z,1.20
2022-12-26T00:54:34.403Z,1.20
2022-12-26T00:54:57.143Z,1.20
2022-12-26T00:55:19.911Z,1.20
2022-12-26T00:55:44.188Z,1.20
2022-12-26T00:56:07.620Z,1.20
2022-12-26T00:56:30.342Z,1.20
2022-12-26T00:56:53.064Z,1.20
2022-12-26T00:57:15.832Z,1.20
2022-12-26T00:57:38.562Z,1.20
2022-12-26T00:58:01.264Z,1.20
2022-12-26T00:58:24.283Z,1.10
2022-12-26T00:58:46.998Z,1.20
2022-12-26T00:59:11.175Z,1.20
2022-12-26T00:59:34.230Z,1.20
2022-12-26T00:59:56.970Z,1.20
2022-12-26T01:00:19.913Z,1.20
2022-12-26T01:00:42.657Z,1.20
2022-12-26T01:01:07.220Z,1.20
2022-12-26T01:01:31.375Z,1.20
2022-12-26T01:01:54.535Z,1.20
2022-12-26T01:02:36.380Z,1.10
2022-12-26T01:02:59.458Z,1.10
2022-12-26T01:03:22.396Z,1.10
2022-12-26T01:03:45.437Z,1.10
2022-12-26T01:04:08.157Z,1.10
2022-12-26T01:04:30.894Z,1.10
2022-12-26T01:04:53.625Z,1.10
2022-12-26T01:05:16.360Z,1.10
2022-12-26T01:05:41.823Z,1.10
2022-12-26T01:06:05.310Z,1.10
2022-12-26T01:06:28.054Z,1.10
2022-12-26T01:06:50.729Z,1.10
2022-12-26T01:07:13.453Z,1.10
2022-12-26T01:08:22.303Z,1.10
2022-12-26T01:08:24.535Z,1.10
2022-12-26T01:08:48.093Z,1.10
2022-12-26T01:09:12.328Z,1.20
2022-12-26T01:09:36.469Z,1.10
2022-12-26T01:10:00.238Z,1.20
2022-12-26T01:10:22.973Z,1.20
2022-12-26T01:10:46.850Z,1.10
2022-12-26T01:11:12.034Z,1.20
2022-12-26T01:11:40.857Z,1.10
2022-12-26T01:12:03.789Z,1.20
2022-12-26T01:12:27.744Z,1.20
2022-12-26T01:12:50.472Z,1.20
2022-12-26T01:13:13.262Z,1.10
2022-12-26T01:13:36.534Z,1.10
2022-12-26T01:13:59.181Z,1.10
2022-12-26T01:14:23.420Z,1.10
2022-12-26T01:14:46.296Z,1.00
2022-12-26T01:15:10.376Z,1.00
2022-12-26T01:15:35.570Z,1.10
2022-12-26T01:15:58.447Z,1.10
2022-12-26T01:16:23.779Z,1.10
2022-12-26T01:16:46.854Z,1.10
2022-12-26T01:17:09.734Z,1.10
2022-12-26T01:17:32.492Z,1.10
2022-12-26T01:17:55.236Z,1.10
2022-12-26T01:18:18.198Z,1.10
2022-12-26T01:18:40.999Z,1.10
2022-12-26T01:19:03.857Z,1.00
2022-12-26T01:19:27.534Z,1.00
2022-12-26T01:19:50.328Z,1.10
2022-12-26T01:20:13.000Z,1.00
2022-12-26T01:20:35.729Z,1.00
2022-12-26T01:20:59.939Z,1.00
2022-12-26T01:21:22.704Z,1.00
2022-12-26T01:21:45.519Z,1.00
2022-12-26T01:22:08.218Z,1.00
2022-12-26T01:22:30.916Z,1.00
2022-12-26T01:22:53.878Z,1.00
2022-12-26T01:23:16.969Z,1.00
2022-12-26T01:23:39.689Z,1.00
2022-12-26T01:24:02.419Z,1.00
2022-12-26T01:24:25.148Z,1.00
2022-12-26T01:24:47.833Z,1.00
2022-12-26T01:25:11.124Z,1.00
2022-12-26T01:25:33.854Z,1.00
2022-12-26T01:26:15.372Z,1.00
2022-12-26T01:26:39.220Z,1.00
2022-12-26T01:27:03.057Z,1.10
2022-12-26T01:27:26.372Z,1.00
2022-12-26T01:27:49.059Z,1.00
2022-12-26T01:28:11.732Z,1.10
2022-12-26T01:28:35.540Z,1.00
2022-12-26T01:28:58.502Z,1.00
2022-12-26T01:29:22.875Z,1.00
2022-12-26T01:29:45.891Z,1.00
2022-12-26T01:30:10.089Z,1.00
2022-12-26T01:30:32.902Z,1.00
2022-12-26T01:30:55.785Z,1.00
2022-12-26T01:31:18.718Z,0.90
2022-12-26T01:31:41.553Z,0.90
2022-12-26T01:32:05.110Z,0.90
2022-12-26T01:32:28.007Z,0.90
2022-12-26T01:32:50.768Z,0.90
2022-12-26T01:33:13.477Z,0.90
2022-12-26T01:33:36.836Z,0.90
2022-12-26T01:33:59.555Z,0.90
2022-12-26T01:34:22.424Z,0.90
2022-12-26T01:34:45.209Z,0.90
2022-12-26T01:35:09.452Z,0.90
2022-12-26T01:35:32.274Z,0.90
2022-12-26T01:35:55.088Z,0.90
2022-12-26T01:36:17.974Z,0.90
2022-12-26T01:36:41.792Z,0.90
2022-12-26T01:37:04.498Z,0.90
2022-12-26T01:37:27.329Z,0.80
2022-12-26T01:37:50.153Z,0.80
2022-12-26T01:38:12.918Z,0.80
2022-12-26T01:38:35.683Z,0.80
2022-12-26T01:38:58.359Z,0.80
2022-12-26T01:39:21.138Z,0.90
2022-12-26T01:39:43.976Z,0.90
2022-12-26T01:40:08.547Z,0.90
2022-12-26T01:40:31.871Z,0.90
2022-12-26T01:41:14.799Z,1.00
2022-12-26T01:41:37.743Z,1.00
2022-12-26T01:42:00.483Z,1.00
2022-12-26T01:42:24.020Z,1.10
2022-12-26T01:42:46.849Z,1.00
2022-12-26T01:43:10.903Z,1.00
2022-12-26T01:44:04.347Z,1.00
2022-12-26T01:45:08.980Z,1.00
2022-12-26T01:45:33.491Z,1.00
2022-12-26T01:45:56.316Z,1.00
2022-12-26T01:46:20.498Z,1.00
2022-12-26T01:46:44.565Z,1.00
2022-12-26T01:47:07.271Z,1.00
2022-12-26T01:47:42.107Z,1.00
2022-12-26T01:48:06.037Z,1.00
2022-12-26T01:48:33.548Z,1.00
2022-12-26T01:49:00.980Z,0.90
2022-12-26T01:49:30.183Z,0.90
2022-12-26T01:49:54.273Z,0.90
2022-12-26T01:50:25.710Z,1.00
2022-12-26T01:50:51.043Z,1.00
2022-12-26T01:51:13.776Z,0.90
2022-12-26T01:51:38.884Z,0.90
2022-12-26T01:52:02.897Z,0.90
2022-12-26T01:52:29.443Z,0.90
2022-12-26T01:52:52.184Z,0.90
2022-12-26T01:53:16.325Z,0.80
2022-12-26T01:53:40.880Z,0.90
2022-12-26T01:54:39.124Z,0.90
2022-12-26T01:54:48.727Z,0.90
2022-12-26T01:55:12.971Z,0.90
2022-12-26T01:55:35.894Z,0.90
2022-12-26T01:56:00.561Z,0.90
2022-12-26T01:56:25.444Z,0.90
2022-12-26T01:56:48.174Z,0.80
2022-12-26T01:57:12.331Z,0.80
2022-12-26T01:57:37.962Z,0.80
2022-12-26T01:58:03.300Z,0.80
2022-12-26T01:58:28.933Z,0.80
2022-12-26T01:58:56.171Z,0.80
2022-12-26T01:59:19.749Z,0.80
2022-12-26T01:59:42.423Z,0.70
2022-12-26T02:00:06.753Z,0.70
2022-12-26T02:00:29.479Z,0.70
2022-12-26T02:00:53.709Z,0.70
2022-12-26T02:01:16.519Z,0.70
2022-12-26T02:01:40.559Z,0.70
2022-12-26T02:02:03.503Z,0.70
2022-12-26T02:02:27.164Z,0.70
2022-12-26T02:03:09.060Z,0.70
2022-12-26T02:03:50.582Z,0.70
2022-12-26T02:04:34.227Z,0.60
2022-12-26T02:05:16.010Z,0.60
2022-12-26T02:05:38.733Z,0.60
2022-12-26T02:06:01.504Z,0.60
2022-12-26T02:06:24.181Z,0.60
2022-12-26T02:06:46.899Z,0.60
2022-12-26T02:07:09.717Z,0.60
2022-12-26T02:07:32.771Z,0.70
2022-12-26T02:07:55.430Z,0.70
2022-12-26T02:08:19.903Z,0.70
2022-12-26T02:08:42.649Z,0.70
2022-12-26T02:09:06.746Z,0.70
2022-12-26T02:09:29.466Z,0.60
2022-12-26T02:09:52.251Z,0.70
2022-12-26T02:10:17.356Z,0.60
2022-12-26T02:10:43.855Z,0.60
2022-12-26T02:11:11.136Z,0.60
2022-12-26T02:11:35.057Z,0.60
2022-12-26T02:12:34.204Z,0.60
2022-12-26T02:12:43.013Z,0.50
2022-12-26T02:13:05.869Z,0.50
2022-12-26T02:13:29.458Z,0.40
2022-12-26T02:13:52.890Z,0.40
2022-12-26T02:14:15.696Z,0.30
2022-12-26T02:14:38.549Z,0.40
2022-12-26T02:15:01.332Z,0.40
2022-12-26T02:15:23.993Z,0.40
2022-12-26T02:15:48.966Z,0.40
2022-12-26T02:16:14.148Z,0.50
2022-12-26T02:16:38.667Z,0.50
2022-12-26T02:17:01.432Z,0.40
2022-12-26T02:17:24.274Z,0.50
2022-12-26T02:17:47.948Z,0.50
2022-12-26T02:18:10.678Z,0.50
2022-12-26T02:18:33.385Z,0.50
2022-12-26T02:18:56.183Z,0.50
2022-12-26T02:19:26.555Z,0.60
2022-12-26T02:19:51.364Z,0.50
2022-12-26T02:20:18.438Z,0.60
2022-12-26T02:20:43.529Z,0.60
2022-12-26T02:21:21.135Z,0.60
2022-12-26T02:22:11.713Z,0.60
2022-12-26T02:23:11.215Z,0.60
2022-12-26T02:24:09.960Z,0.70
2022-12-26T02:24:49.304Z,0.70
2022-12-26T02:25:42.417Z,0.70
2022-12-26T02:27:01.773Z,0.70
2022-12-26T02:27:35.853Z,0.70
2022-12-26T02:28:13.146Z,0.70
2022-12-26T02:29:01.775Z,0.70
2022-12-26T02:30:02.726Z,0.70
2022-12-26T02:30:33.733Z,0.70
2022-12-26T02:30:56.718Z,0.80
2022-12-26T02:31:20.077Z,0.70
2022-12-26T02:31:45.012Z,0.70
2022-12-26T02:32:11.436Z,0.70
2022-12-26T02:33:06.585Z,0.70
2022-12-26T02:33:38.005Z,0.70
2022-12-26T02:34:04.740Z,0.70
2022-12-26T02:34:29.128Z,0.70
2022-12-26T02:34:56.493Z,0.70
2022-12-26T02:35:25.143Z,0.70
2022-12-26T02:36:04.484Z,0.70
2022-12-26T02:36:35.687Z,0.70
2022-12-26T02:37:07.293Z,0.70
2022-12-26T02:37:38.748Z,0.70
2022-12-26T02:38:06.058Z,0.70
2022-12-26T02:38:34.025Z,0.70
2022-12-26T02:39:43.326Z,0.70
2022-12-26T02:39:58.171Z,0.70
2022-12-26T02:40:31.703Z,0.70
2022-12-26T02:41:00.015Z,0.70
2022-12-26T02:41:26.434Z,0.70
2022-12-26T02:41:52.739Z,0.70
2022-12-26T02:42:24.016Z,0.70
2022-12-26T02:42:54.757Z,0.70
2022-12-26T02:43:22.383Z,0.70
2022-12-26T02:43:49.768Z,0.70
2022-12-26T02:44:35.068Z,0.70
2022-12-26T02:45:19.772Z,0.70
2022-12-26T02:46:05.531Z,0.70
2022-12-26T02:46:51.338Z,0.70
2022-12-26T02:47:16.834Z,0.70
2022-12-26T02:47:46.574Z,0.80
2022-12-26T02:48:13.642Z,0.70
2022-12-26T02:48:41.292Z,0.70
2022-12-26T02:49:06.536Z,0.80
2022-12-26T02:49:56.320Z,0.80
2022-12-26T02:50:40.908Z,0.80
2022-12-26T02:51:24.266Z,0.80
2022-12-26T02:52:14.463Z,0.80
2022-12-26T02:53:00.178Z,0.80
2022-12-26T02:53:46.515Z,0.80
2022-12-26T02:54:32.397Z,0.80
2022-12-26T02:55:15.869Z,0.80
2022-12-26T02:55:57.559Z,0.80
2022-12-26T02:56:46.244Z,0.80
2022-12-26T02:57:30.724Z,0.80
2022-12-26T02:58:15.349Z,0.80
2022-12-26T02:59:00.829Z,0.80
2022-12-26T02:59:53.760Z,0.70
2022-12-26T03:00:38.169Z,0.90
2022-12-26T03:01:24.634Z,0.80
2022-12-26T03:02:06.846Z,0.80
2022-12-26T03:02:50.615Z,0.70
2022-12-26T03:03:34.141Z,0.70
2022-12-26T03:04:15.808Z,0.60
2022-12-26T03:04:57.370Z,0.60
2022-12-26T03:06:02.085Z,0.50
2022-12-26T03:06:44.158Z,0.50
2022-12-26T03:07:29.134Z,0.50
2022-12-26T03:08:10.416Z,0.50
2022-12-26T03:08:53.615Z,0.60
2022-12-26T03:09:36.325Z,0.60
2022-12-26T03:10:19.694Z,0.60
2022-12-26T03:11:01.248Z,0.60
2022-12-26T03:11:42.940Z,0.50
2022-12-26T03:12:27.375Z,0.60
2022-12-26T03:13:10.981Z,0.60
2022-12-26T03:13:33.735Z,0.50
2022-12-26T03:13:57.689Z,0.60
2022-12-26T03:14:23.689Z,0.60
2022-12-26T03:14:47.788Z,0.50
2022-12-26T03:15:12.659Z,0.60
2022-12-26T03:15:55.364Z,0.60
2022-12-26T03:16:38.341Z,0.60
2022-12-26T03:17:21.815Z,0.60
2022-12-26T03:17:47.209Z,0.70
2022-12-26T03:18:11.402Z,0.70
2022-12-26T03:18:59.096Z,0.70
2022-12-26T03:19:18.147Z,0.70
2022-12-26T03:19:58.423Z,0.70
2022-12-26T03:20:22.743Z,0.70
2022-12-26T03:20:45.539Z,0.80
2022-12-26T03:21:08.390Z,0.80
2022-12-26T03:21:35.886Z,0.80
2022-12-26T03:21:58.581Z,0.80
2022-12-26T03:22:33.453Z,0.70
2022-12-26T03:22:57.270Z,0.70
2022-12-26T03:23:20.116Z,0.70
2022-12-26T03:23:43.303Z,0.70
2022-12-26T03:24:06.545Z,0.70
2022-12-26T03:24:49.363Z,0.70
2022-12-26T03:25:32.065Z,0.70
2022-12-26T03:26:15.257Z,0.80
2022-12-26T03:26:40.641Z,0.80
2022-12-26T03:27:03.424Z,0.80
2022-12-26T03:27:26.665Z,0.80
2022-12-26T03:27:49.420Z,0.80
2022-12-26T03:28:14.155Z,0.80
2022-12-26T03:28:37.054Z,0.80
2022-12-26T03:29:19.791Z,0.80
2022-12-26T03:30:01.144Z,0.80
2022-12-26T03:30:42.963Z,0.80
2022-12-26T03:31:07.317Z,0.80
2022-12-26T03:31:31.534Z,0.80
2022-12-26T03:31:54.316Z,0.80
2022-12-26T03:32:17.980Z,0.90
2022-12-26T03:32:43.069Z,0.80
2022-12-26T03:33:06.085Z,0.80
2022-12-26T03:33:48.995Z,0.80
2022-12-26T03:34:17.559Z,0.80
2022-12-26T03:34:41.952Z,0.70
2022-12-26T03:35:09.117Z,0.70
2022-12-26T03:35:33.430Z,0.70
2022-12-26T03:35:56.154Z,0.70
2022-12-26T03:36:23.079Z,0.70
2022-12-26T03:36:55.049Z,0.70
2022-12-26T03:37:47.512Z,0.70
2022-12-26T03:38:12.850Z,0.70
2022-12-26T03:38:38.401Z,0.70
2022-12-26T03:39:07.830Z,0.70
2022-12-26T03:39:54.100Z,0.70
2022-12-26T03:40:55.917Z,0.70
2022-12-26T03:41:40.324Z,0.70
2022-12-26T03:42:23.543Z,0.60
2022-12-26T03:43:08.676Z,0.60
2022-12-26T03:43:58.794Z,0.60
2022-12-26T03:44:45.246Z,0.60
2022-12-26T03:45:33.146Z,0.60
2022-12-26T03:46:19.929Z,0.60
2022-12-26T03:47:11.860Z,0.60
2022-12-26T03:47:56.370Z,0.60
2022-12-26T03:48:41.464Z,0.60
2022-12-26T03:49:25.632Z,0.50
2022-12-26T03:50:08.624Z,0.50
2022-12-26T03:50:52.019Z,0.50
2022-12-26T03:51:37.300Z,0.50
2022-12-26T03:52:20.654Z,0.60
2022-12-26T03:53:07.392Z,0.60
2022-12-26T03:53:51.226Z,0.60
2022-12-26T03:54:33.185Z,0.50
2022-12-26T03:55:16.908Z,0.50
2022-12-26T03:56:00.657Z,0.50
2022-12-26T03:56:44.318Z,0.50
2022-12-26T03:57:28.817Z,0.50
2022-12-26T03:58:11.475Z,0.60
2022-12-26T03:58:56.430Z,0.60
2022-12-26T03:59:39.685Z,0.60
2022-12-26T04:00:23.370Z,0.60
2022-12-26T04:01:05.083Z,0.60
2022-12-26T04:01:46.862Z,0.60
2022-12-26T04:02:30.009Z,0.60
2022-12-26T04:03:29.194Z,0.60
2022-12-26T04:04:10.726Z,0.50
2022-12-26T04:04:53.625Z,0.50
2022-12-26T04:05:34.963Z,0.40
2022-12-26T04:06:17.111Z,0.40
2022-12-26T04:07:04.805Z,0.50
2022-12-26T04:07:56.654Z,0.50
2022-12-26T04:08:42.855Z,0.60
2022-12-26T04:09:27.769Z,0.60
2022-12-26T04:10:11.731Z,0.60
2022-12-26T04:10:54.394Z,0.60
2022-12-26T04:11:35.800Z,0.60
2022-12-26T04:12:17.227Z,0.60
2022-12-26T04:12:58.653Z,0.60
2022-12-26T04:13:41.263Z,0.60
2022-12-26T04:14:27.055Z,0.50
2022-12-26T04:15:12.188Z,0.50
2022-12-26T04:15:58.275Z,0.50
2022-12-26T04:16:42.242Z,0.50
2022-12-26T04:17:27.955Z,0.50
2022-12-26T04:18:12.959Z,0.50
2022-12-26T04:19:01.537Z,0.50
2022-12-26T04:19:36.970Z,0.40
2022-12-26T04:20:03.307Z,0.40
2022-12-26T04:20:30.409Z,0.40
2022-12-26T04:21:04.656Z,0.40
2022-12-26T04:21:48.467Z,0.40
2022-12-26T04:22:33.155Z,0.40
2022-12-26T04:23:17.055Z,0.40
2022-12-26T04:24:01.881Z,0.40
2022-12-26T04:24:44.818Z,0.40
2022-12-26T04:25:49.352Z,0.40
2022-12-26T04:26:31.791Z,0.40
2022-12-26T04:27:14.486Z,0.30
2022-12-26T04:27:55.827Z,0.40
2022-12-26T04:28:37.433Z,0.30
2022-12-26T04:29:18.987Z,0.30
2022-12-26T04:30:00.534Z,0.30
2022-12-26T04:30:41.808Z,0.30
2022-12-26T04:31:25.980Z,0.30
2022-12-26T04:32:10.104Z,0.30
2022-12-26T04:32:54.882Z,0.30
2022-12-26T04:33:39.323Z,0.30
2022-12-26T04:34:21.611Z,0.30
2022-12-26T04:35:04.172Z,0.30
2022-12-26T04:35:48.261Z,0.30
2022-12-26T04:36:32.810Z,0.30
2022-12-26T04:37:16.573Z,0.30
2022-12-26T04:37:59.866Z,0.30
2022-12-26T04:38:43.066Z,0.30
2022-12-26T04:39:25.617Z,0.30
2022-12-26T04:40:08.413Z,0.30
2022-12-26T04:40:52.329Z,0.20
2022-12-26T04:41:33.748Z,0.30
2022-12-26T04:42:17.695Z,0.30
2022-12-26T04:42:59.192Z,0.30
2022-12-26T04:43:49.287Z,0.30
2022-12-26T04:44:14.063Z,0.30
2022-12-26T04:44:36.819Z,0.30
2022-12-26T04:45:02.972Z,0.30
2022-12-26T04:45:25.762Z,0.30
2022-12-26T04:45:48.461Z,0.30
2022-12-26T04:46:11.227Z,0.30
2022-12-26T04:46:34.908Z,0.30
2022-12-26T04:46:58.138Z,0.30
2022-12-26T04:47:21.201Z,0.30
2022-12-26T04:48:03.959Z,0.30
2022-12-26T04:48:46.880Z,0.30
2022-12-26T04:49:27.045Z,0.30
2022-12-26T04:50:08.232Z,0.40
2022-12-26T04:50:31.102Z,0.40
2022-12-26T04:50:53.925Z,0.40
2022-12-26T04:51:16.543Z,0.40
2022-12-26T04:51:39.377Z,0.50
2022-12-26T04:52:03.613Z,0.40
2022-12-26T04:52:46.268Z,0.40
2022-12-26T04:53:09.596Z,0.40
2022-12-26T04:53:32.328Z,0.40
2022-12-26T04:53:55.078Z,0.40
2022-12-26T04:54:18.082Z,0.40
2022-12-26T04:54:40.910Z,0.40
2022-12-26T04:55:03.876Z,0.40
2022-12-26T04:55:26.911Z,0.40
2022-12-26T04:55:49.606Z,0.50
2022-12-26T04:56:13.033Z,0.50
2022-12-26T04:56:36.473Z,0.50
2022-12-26T04:56:59.190Z,0.50
2022-12-26T04:57:21.814Z,0.50
2022-12-26T04:57:44.498Z,0.50
2022-12-26T04:58:07.233Z,0.60
2022-12-26T04:58:30.599Z,0.50
2022-12-26T04:58:53.282Z,0.50
2022-12-26T04:59:16.167Z,0.50
2022-12-26T04:59:38.873Z,0.60
2022-12-26T05:00:01.657Z,0.60
2022-12-26T05:00:25.209Z,0.60
2022-12-26T05:00:47.993Z,0.60
2022-12-26T05:01:29.607Z,0.60
2022-12-26T05:02:11.038Z,0.60
2022-12-26T05:02:52.786Z,0.60
2022-12-26T05:03:34.622Z,0.60
2022-12-26T05:04:17.450Z,0.50
2022-12-26T05:05:18.888Z,0.50
2022-12-26T05:06:00.843Z,0.50
2022-12-26T05:06:41.773Z,0.40
2022-12-26T05:07:23.994Z,0.40
2022-12-26T05:08:05.099Z,0.40
2022-12-26T05:08:49.541Z,0.40
2022-12-26T05:09:30.732Z,0.40
2022-12-26T05:09:53.697Z,0.50
2022-12-26T05:10:18.600Z,0.50
2022-12-26T05:10:41.358Z,0.50
2022-12-26T05:11:04.178Z,0.50
2022-12-26T05:11:27.493Z,0.50
2022-12-26T05:11:50.196Z,0.50
2022-12-26T05:12:12.938Z,0.40
2022-12-26T05:12:35.688Z,0.50
2022-12-26T05:12:58.410Z,0.50
2022-12-26T05:13:21.130Z,0.40
2022-12-26T05:13:43.937Z,0.40
2022-12-26T05:14:06.730Z,0.50
2022-12-26T05:14:31.912Z,0.50
2022-12-26T05:14:54.895Z,0.50
2022-12-26T05:15:20.514Z,0.50
2022-12-26T05:16:01.838Z,0.50
2022-12-26T05:16:43.500Z,0.50
2022-12-26T05:17:25.331Z,0.50
2022-12-26T05:18:06.735Z,0.40
2022-12-26T05:18:47.935Z,0.50
2022-12-26T05:19:31.312Z,0.50
2022-12-26T05:20:13.024Z,0.50
2022-12-26T05:20:38.573Z,0.50
2022-12-26T05:21:20.568Z,0.40
2022-12-26T05:22:02.095Z,0.40
2022-12-26T05:22:43.185Z,0.30
2022-12-26T05:23:24.479Z,0.30
2022-12-26T05:24:05.717Z,0.30
2022-12-26T05:24:50.883Z,0.30
2022-12-26T05:25:33.927Z,0.20
2022-12-26T05:26:14.844Z,0.20
2022-12-26T05:26:56.017Z,0.20
2022-12-26T05:27:37.281Z,0.20
2022-12-26T05:28:18.768Z,0.20
2022-12-26T05:28:44.442Z,0.20
2022-12-26T05:29:07.119Z,0.20
2022-12-26T05:29:29.874Z,0.20
2022-12-26T05:29:52.623Z,0.20
2022-12-26T05:30:17.717Z,0.20
2022-12-26T05:30:40.480Z,0.20
2022-12-26T05:31:03.298Z,0.20
2022-12-26T05:31:31.184Z,0.20
2022-12-26T05:31:57.922Z,0.20
2022-12-26T05:32:39.610Z,0.20
2022-12-26T05:33:21.122Z,0.20
2022-12-26T05:34:02.248Z,0.20
2022-12-26T05:34:26.504Z,0.20
2022-12-26T05:34:49.254Z,0.20
2022-12-26T05:35:12.189Z,0.20
2022-12-26T05:35:34.917Z,0.20
2022-12-26T05:36:00.165Z,0.20
2022-12-26T05:36:24.517Z,0.30
2022-12-26T05:36:48.313Z,0.30
2022-12-26T05:37:11.123Z,0.30
2022-12-26T05:37:35.568Z,0.30
2022-12-26T05:37:58.250Z,0.20
2022-12-26T05:38:21.006Z,0.30
2022-12-26T05:38:43.779Z,0.20
2022-12-26T05:39:06.634Z,0.20
2022-12-26T05:39:29.478Z,0.20
2022-12-26T05:39:52.177Z,0.20
2022-12-26T05:40:15.008Z,0.20
2022-12-26T05:40:37.695Z,0.20
2022-12-26T05:41:00.433Z,0.20
2022-12-26T05:41:23.213Z,0.20
2022-12-26T05:41:46.104Z,0.30
2022-12-26T05:42:08.861Z,0.30
2022-12-26T05:42:31.631Z,0.30
2022-12-26T05:42:54.329Z,0.30
2022-12-26T05:43:18.923Z,0.40
2022-12-26T05:43:41.630Z,0.40
2022-12-26T05:44:05.644Z,0.40
2022-12-26T05:44:28.321Z,0.40
2022-12-26T05:44:51.049Z,0.40
2022-12-26T05:45:13.869Z,0.40
2022-12-26T05:45:36.935Z,0.40
2022-12-26T05:45:59.935Z,0.40
2022-12-26T05:46:22.723Z,0.40
2022-12-26T05:46:47.120Z,0.40
2022-12-26T05:47:10.210Z,0.40
2022-12-26T05:47:33.028Z,0.40
2022-12-26T05:47:59.249Z,0.40
2022-12-26T05:48:21.923Z,0.40
2022-12-26T05:48:44.647Z,0.40
2022-12-26T05:49:07.358Z,0.40
2022-12-26T05:49:31.663Z,0.40
2022-12-26T05:49:55.447Z,0.40
2022-12-26T05:50:18.253Z,0.40
2022-12-26T05:50:40.962Z,0.30
2022-12-26T05:51:07.018Z,0.30
2022-12-26T05:51:29.725Z,0.30
2022-12-26T05:51:52.519Z,0.30
2022-12-26T05:52:15.309Z,0.30
2022-12-26T05:52:39.155Z,0.30
2022-12-26T05:53:01.924Z,0.30
2022-12-26T05:53:24.701Z,0.30
2022-12-26T05:53:48.737Z,0.30
2022-12-26T05:54:11.504Z,0.30
2022-12-26T05:54:34.307Z,0.30
2022-12-26T05:54:57.089Z,0.20
2022-12-26T05:55:19.924Z,0.30
2022-12-26T05:55:42.613Z,0.30
2022-12-26T05:56:05.944Z,0.30
2022-12-26T05:56:28.660Z,0.30
2022-12-26T05:56:51.409Z,0.30
2022-12-26T05:57:14.160Z,0.30
2022-12-26T05:57:36.881Z,0.30
2022-12-26T05:57:59.961Z,0.30
2022-12-26T05:58:22.733Z,0.30
2022-12-26T05:58:45.606Z,0.30
2022-12-26T05:59:10.097Z,0.20
2022-12-26T05:59:32.908Z,0.30
2022-12-26T05:59:55.688Z,0.20
2022-12-26T06:00:18.660Z,0.20
2022-12-26T06:00:41.439Z,0.20
2022-12-26T06:01:08.935Z,0.20
2022-12-26T06:01:31.897Z,0.10
2022-12-26T06:01:54.927Z,0.10
2022-12-26T06:02:17.948Z,0.10
2022-12-26T06:02:40.938Z,0.10
2022-12-26T06:03:05.272Z,0.10
2022-12-26T06:03:29.911Z,0.10
2022-12-26T06:03:53.716Z,0.00
2022-12-26T06:04:16.533Z,0.00
2022-12-26T06:04:40.789Z,0.00
2022-12-26T06:05:04.511Z,0.00
2022-12-26T06:05:27.248Z,0.10
2022-12-26T06:05:49.943Z,0.10
2022-12-26T06:06:12.646Z,0.10
2022-12-26T06:06:35.411Z,0.00
2022-12-26T06:06:58.381Z,0.00
2022-12-26T06:07:21.131Z,0.00
2022-12-26T06:07:43.872Z,0.00
2022-12-26T06:08:06.648Z,0.00
2022-12-26T06:08:29.424Z,0.00
2022-12-26T06:08:52.670Z,0.00
2022-12-26T06:09:15.403Z,-0.10
2022-12-26T06:09:38.144Z,-0.10
2022-12-26T06:10:00.803Z,-0.10
2022-12-26T06:10:23.550Z,-0.10
2022-12-26T06:10:46.274Z,-0.10
2022-12-26T06:11:10.093Z,-0.10
2022-12-26T06:11:32.796Z,-0.10
2022-12-26T06:11:55.531Z,-0.10
2022-12-26T06:12:18.404Z,-0.20
2022-12-26T06:12:41.267Z,-0.20
2022-12-26T06:13:04.003Z,-0.10
2022-12-26T06:13:26.744Z,-0.10
2022-12-26T06:13:49.636Z,-0.10
2022-12-26T06:14:12.359Z,-0.10
2022-12-26T06:14:35.065Z,-0.10
2022-12-26T06:14:57.895Z,-0.10
2022-12-26T06:15:20.720Z,-0.10
2022-12-26T06:15:43.528Z,-0.10
2022-12-26T06:16:07.310Z,-0.10
2022-12-26T06:16:30.248Z,-0.10
2022-12-26T06:16:53.017Z,-0.10
2022-12-26T06:17:15.769Z,-0.10
2022-12-26T06:17:38.484Z,-0.10
2022-12-26T06:18:01.314Z,-0.10
2022-12-26T06:18:24.179Z,0.00
2022-12-26T06:18:46.985Z,0.00
2022-12-26T06:19:09.766Z,0.00
2022-12-26T06:19:32.448Z,0.00
2022-12-26T06:19:56.709Z,0.00
2022-12-26T06:20:19.376Z,0.00
2022-12-26T06:20:42.097Z,0.10
2022-12-26T06:21:05.798Z,0.10
2022-12-26T06:21:28.619Z,0.10
2022-12-26T06:21:51.324Z,0.20
2022-12-26T06:22:14.086Z,0.20
2022-12-26T06:22:36.968Z,0.20
2022-12-26T06:22:59.922Z,0.20
2022-12-26T06:23:22.669Z,0.10
2022-12-26T06:23:45.466Z,0.20
2022-12-26T06:24:08.375Z,0.20
2022-12-26T06:24:31.127Z,0.20
2022-12-26T06:24:53.864Z,0.20
2022-12-26T06:25:16.729Z,0.20
2022-12-26T06:25:39.681Z,0.20